Terminal Aerodrome Forecast
Issued by NWS Tampa Bay Area, FL

Home | Current Version | Previous Version | Text Only | Print | Product List | Glossary On
Versions: 1 2 3 4 5 6 7 8 9 10 11 12 13
000
FTUS42 KTBW 230522
TAFSRQ
TAF
KSRQ 230522Z 2306/2406 08005KT P6SM FEW020 SCT250
     FM231400 06006KT P6SM FEW025 SCT250
     FM231800 32009KT P6SM VCTS FEW025CB SCT100 SCT250
     FM232200 35008KT P6SM VCTS FEW025CB BKN100
     FM240200 VRB04KT P6SM SCT100 BKN250=

USA.gov is the U.S. government's official web portal to all federal, state and local government web resources and services.